sensor_id;sensor_type;location;lat;lon;timestamp;pressure;altitude;pressure_sealevel;temperature
40624;BMP280;26325;48.594;11.650;2023-04-03T00:01:59;97258.16;;;4.85
40624;BMP280;26325;48.594;11.650;2023-04-03T00:04:24;97261.72;;;4.91
40624;BMP280;26325;48.594;11.650;2023-04-03T00:06:50;97260.91;;;4.84
40624;BMP280;26325;48.594;11.650;2023-04-03T00:09:16;97268.81;;;4.89
40624;BMP280;26325;48.594;11.650;2023-04-03T00:11:42;97273.34;;;4.87
40624;BMP280;26325;48.594;11.650;2023-04-03T00:14:10;97266.78;;;4.78
40624;BMP280;26325;48.594;11.650;2023-04-03T00:16:35;97261.34;;;4.93
40624;BMP280;26325;48.594;11.650;2023-04-03T00:19:03;97259.94;;;4.85
40624;BMP280;26325;48.594;11.650;2023-04-03T00:21:31;97265.66;;;4.87
40624;BMP280;26325;48.594;11.650;2023-04-03T00:23:56;97264.28;;;4.91
40624;BMP280;26325;48.594;11.650;2023-04-03T00:26:22;97263.16;;;4.99
40624;BMP280;26325;48.594;11.650;2023-04-03T00:28:47;97259.78;;;4.93
40624;BMP280;26325;48.594;11.650;2023-04-03T00:31:14;97270.00;;;4.93
40624;BMP280;26325;48.594;11.650;2023-04-03T00:33:40;97265.66;;;4.87
40624;BMP280;26325;48.594;11.650;2023-04-03T00:36:08;97263.66;;;4.82
40624;BMP280;26325;48.594;11.650;2023-04-03T00:38:34;97265.03;;;4.85
40624;BMP280;26325;48.594;11.650;2023-04-03T00:41:02;97267.50;;;4.66
40624;BMP280;26325;48.594;11.650;2023-04-03T00:43:27;97260.41;;;4.68
40624;BMP280;26325;48.594;11.650;2023-04-03T00:45:54;97252.59;;;4.75
40624;BMP280;26325;48.594;11.650;2023-04-03T00:51:03;97264.06;;;4.86
40624;BMP280;26325;48.594;11.650;2023-04-03T00:53:39;97264.50;;;4.89
40624;BMP280;26325;48.594;11.650;2023-04-03T00:56:07;97265.81;;;4.79
40624;BMP280;26325;48.594;11.650;2023-04-03T00:58:38;97254.34;;;4.75
40624;BMP280;26325;48.594;11.650;2023-04-03T01:01:06;97262.28;;;4.80
40624;BMP280;26325;48.594;11.650;2023-04-03T01:03:35;97254.97;;;4.77
40624;BMP280;26325;48.594;11.650;2023-04-03T01:06:00;97263.06;;;4.80
40624;BMP280;26325;48.594;11.650;2023-04-03T01:08:26;97254.13;;;4.70
40624;BMP280;26325;48.594;11.650;2023-04-03T01:10:51;97252.56;;;4.69
40624;BMP280;26325;48.594;11.650;2023-04-03T01:13:29;97267.91;;;4.69
40624;BMP280;26325;48.594;11.650;2023-04-03T01:15:55;97262.53;;;4.58
40624;BMP280;26325;48.594;11.650;2023-04-03T01:18:22;97259.09;;;4.72
40624;BMP280;26325;48.594;11.650;2023-04-03T01:25:53;97263.56;;;4.63
40624;BMP280;26325;48.594;11.650;2023-04-03T01:28:32;97264.88;;;4.53
40624;BMP280;26325;48.594;11.650;2023-04-03T01:33:47;97274.00;;;4.68
40624;BMP280;26325;48.594;11.650;2023-04-03T01:36:18;97271.59;;;4.60
40624;BMP280;26325;48.594;11.650;2023-04-03T01:38:44;97276.28;;;4.57
40624;BMP280;26325;48.594;11.650;2023-04-03T01:41:09;97279.63;;;4.57
40624;BMP280;26325;48.594;11.650;2023-04-03T01:43:35;97276.06;;;4.52
40624;BMP280;26325;48.594;11.650;2023-04-03T01:46:00;97277.66;;;4.53
40624;BMP280;26325;48.594;11.650;2023-04-03T01:48:26;97287.09;;;4.53
40624;BMP280;26325;48.594;11.650;2023-04-03T01:50:51;97284.03;;;4.63
40624;BMP280;26325;48.594;11.650;2023-04-03T01:53:19;97282.03;;;4.65
40624;BMP280;26325;48.594;11.650;2023-04-03T01:55:45;97284.59;;;4.65
40624;BMP280;26325;48.594;11.650;2023-04-03T01:58:10;97274.97;;;4.67
40624;BMP280;26325;48.594;11.650;2023-04-03T02:00:36;97271.88;;;4.72
40624;BMP280;26325;48.594;11.650;2023-04-03T02:03:02;97283.13;;;4.77
40624;BMP280;26325;48.594;11.650;2023-04-03T02:05:27;97277.63;;;4.80
40624;BMP280;26325;48.594;11.650;2023-04-03T02:07:53;97274.63;;;4.70
40624;BMP280;26325;48.594;11.650;2023-04-03T02:10:18;97270.63;;;4.61
40624;BMP280;26325;48.594;11.650;2023-04-03T02:12:46;97276.91;;;4.59
40624;BMP280;26325;48.594;11.650;2023-04-03T02:15:11;97285.72;;;4.56
40624;BMP280;26325;48.594;11.650;2023-04-03T02:17:37;97274.94;;;4.61
40624;BMP280;26325;48.594;11.650;2023-04-03T02:20:03;97271.16;;;4.57
40624;BMP280;26325;48.594;11.650;2023-04-03T02:22:28;97273.94;;;4.56
40624;BMP280;26325;48.594;11.650;2023-04-03T02:24:54;97266.63;;;4.53
40624;BMP280;26325;48.594;11.650;2023-04-03T02:27:19;97267.41;;;4.53
40624;BMP280;26325;48.594;11.650;2023-04-03T02:29:47;97271.38;;;4.56
40624;BMP280;26325;48.594;11.650;2023-04-03T02:32:15;97267.75;;;4.44
40624;BMP280;26325;48.594;11.650;2023-04-03T02:34:41;97266.31;;;4.35
40624;BMP280;26325;48.594;11.650;2023-04-03T02:37:06;97276.63;;;4.21
40624;BMP280;26325;48.594;11.650;2023-04-03T02:39:31;97273.53;;;4.32
40624;BMP280;26325;48.594;11.650;2023-04-03T02:41:57;97260.25;;;4.42
40624;BMP280;26325;48.594;11.650;2023-04-03T02:44:22;97264.53;;;4.36
40624;BMP280;26325;48.594;11.650;2023-04-03T02:46:50;97263.56;;;4.37
40624;BMP280;26325;48.594;11.650;2023-04-03T02:49:15;97259.06;;;4.38
40624;BMP280;26325;48.594;11.650;2023-04-03T02:51:43;97265.31;;;4.36
40624;BMP280;26325;48.594;11.650;2023-04-03T02:54:11;97275.09;;;4.26
40624;BMP280;26325;48.594;11.650;2023-04-03T02:56:36;97276.53;;;4.35
40624;BMP280;26325;48.594;11.650;2023-04-03T02:59:04;97268.81;;;4.29
40624;BMP280;26325;48.594;11.650;2023-04-03T03:01:34;97271.06;;;4.38
40624;BMP280;26325;48.594;11.650;2023-04-03T03:04:02;97278.63;;;4.25
40624;BMP280;26325;48.594;11.650;2023-04-03T03:06:27;97273.84;;;4.22
40624;BMP280;26325;48.594;11.650;2023-04-03T03:08:53;97276.16;;;4.38
40624;BMP280;26325;48.594;11.650;2023-04-03T03:11:18;97275.56;;;4.36
40624;BMP280;26325;48.594;11.650;2023-04-03T03:13:46;97269.69;;;4.42
40624;BMP280;26325;48.594;11.650;2023-04-03T03:16:14;97266.53;;;4.40
40624;BMP280;26325;48.594;11.650;2023-04-03T03:18:40;97272.25;;;4.42
40624;BMP280;26325;48.594;11.650;2023-04-03T03:21:05;97277.63;;;4.47
40624;BMP280;26325;48.594;11.650;2023-04-03T03:23:31;97278.44;;;4.54
40624;BMP280;26325;48.594;11.650;2023-04-03T03:25:59;97264.25;;;4.51
40624;BMP280;26325;48.594;11.650;2023-04-03T03:28:24;97270.34;;;4.50
40624;BMP280;26325;48.594;11.650;2023-04-03T03:30:50;97271.72;;;4.46
40624;BMP280;26325;48.594;11.650;2023-04-03T03:33:16;97259.50;;;4.48
40624;BMP280;26325;48.594;11.650;2023-04-03T03:35:42;97267.38;;;4.47
40624;BMP280;26325;48.594;11.650;2023-04-03T03:38:08;97268.34;;;4.46
40624;BMP280;26325;48.594;11.650;2023-04-03T03:40:34;97257.09;;;4.40
40624;BMP280;26325;48.594;11.650;2023-04-03T03:43:01;97272.38;;;4.34
40624;BMP280;26325;48.594;11.650;2023-04-03T03:45:27;97269.34;;;4.24
40624;BMP280;26325;48.594;11.650;2023-04-03T03:47:52;97271.56;;;4.27
40624;BMP280;26325;48.594;11.650;2023-04-03T03:50:18;97272.75;;;4.31
40624;BMP280;26325;48.594;11.650;2023-04-03T03:52:43;97264.84;;;4.26
40624;BMP280;26325;48.594;11.650;2023-04-03T03:55:09;97265.00;;;4.18
40624;BMP280;26325;48.594;11.650;2023-04-03T03:57:37;97268.03;;;4.28
40624;BMP280;26325;48.594;11.650;2023-04-03T04:00:05;97271.16;;;4.30
40624;BMP280;26325;48.594;11.650;2023-04-03T04:02:32;97270.72;;;4.20
40624;BMP280;26325;48.594;11.650;2023-04-03T04:04:58;97270.91;;;4.19
40624;BMP280;26325;48.594;11.650;2023-04-03T04:07:25;97271.03;;;4.11
40624;BMP280;26325;48.594;11.650;2023-04-03T04:09:54;97270.97;;;4.05
40624;BMP280;26325;48.594;11.650;2023-04-03T04:12:21;97270.97;;;4.05
40624;BMP280;26325;48.594;11.650;2023-04-03T04:14:47;97279.53;;;3.98
40624;BMP280;26325;48.594;11.650;2023-04-03T04:17:13;97280.47;;;4.11
40624;BMP280;26325;48.594;11.650;2023-04-03T04:19:39;97274.88;;;4.01
40624;BMP280;26325;48.594;11.650;2023-04-03T04:22:04;97273.28;;;4.00
40624;BMP280;26325;48.594;11.650;2023-04-03T04:24:32;97269.81;;;4.07
40624;BMP280;26325;48.594;11.650;2023-04-03T04:26:57;97277.91;;;3.90
40624;BMP280;26325;48.594;11.650;2023-04-03T04:29:23;97271.78;;;3.85
40624;BMP280;26325;48.594;11.650;2023-04-03T04:31:48;97275.72;;;3.87
40624;BMP280;26325;48.594;11.650;2023-04-03T04:34:14;97270.94;;;3.78
40624;BMP280;26325;48.594;11.650;2023-04-03T04:36:41;97275.00;;;3.93
40624;BMP280;26325;48.594;11.650;2023-04-03T04:39:09;97271.50;;;3.80
40624;BMP280;26325;48.594;11.650;2023-04-03T04:41:34;97286.84;;;3.80
40624;BMP280;26325;48.594;11.650;2023-04-03T04:44:00;97280.94;;;3.79
40624;BMP280;26325;48.594;11.650;2023-04-03T04:46:26;97289.56;;;3.79
40624;BMP280;26325;48.594;11.650;2023-04-03T04:48:51;97295.94;;;3.82
40624;BMP280;26325;48.594;11.650;2023-04-03T04:51:17;97280.88;;;3.73
40624;BMP280;26325;48.594;11.650;2023-04-03T04:53:42;97292.53;;;3.61
40624;BMP280;26325;48.594;11.650;2023-04-03T04:56:11;97278.63;;;3.64
40624;BMP280;26325;48.594;11.650;2023-04-03T04:58:38;97289.47;;;3.66
40624;BMP280;26325;48.594;11.650;2023-04-03T05:01:08;97297.97;;;3.52
40624;BMP280;26325;48.594;11.650;2023-04-03T05:03:36;97294.06;;;3.56
40624;BMP280;26325;48.594;11.650;2023-04-03T05:06:01;97295.78;;;3.49
40624;BMP280;26325;48.594;11.650;2023-04-03T05:08:29;97289.69;;;3.50
40624;BMP280;26325;48.594;11.650;2023-04-03T05:10:57;97298.06;;;3.44
40624;BMP280;26325;48.594;11.650;2023-04-03T05:13:25;97313.13;;;3.40
40624;BMP280;26325;48.594;11.650;2023-04-03T05:16:24;97298.44;;;3.62
40624;BMP280;26325;48.594;11.650;2023-04-03T05:18:56;97296.63;;;3.56
40624;BMP280;26325;48.594;11.650;2023-04-03T05:21:21;97302.00;;;3.61
40624;BMP280;26325;48.594;11.650;2023-04-03T05:23:50;97307.41;;;3.52
40624;BMP280;26325;48.594;11.650;2023-04-03T05:29:39;97312.22;;;3.61
40624;BMP280;26325;48.594;11.650;2023-04-03T05:32:10;97302.75;;;3.61
40624;BMP280;26325;48.594;11.650;2023-04-03T05:34:36;97305.59;;;3.66
40624;BMP280;26325;48.594;11.650;2023-04-03T05:37:01;97302.91;;;3.74
40624;BMP280;26325;48.594;11.650;2023-04-03T05:39:29;97308.47;;;3.78
40624;BMP280;26325;48.594;11.650;2023-04-03T05:45:18;97304.91;;;3.79
40624;BMP280;26325;48.594;11.650;2023-04-03T05:51:06;97315.03;;;3.86
40624;BMP280;26325;48.594;11.650;2023-04-03T05:53:33;97313.56;;;3.78
40624;BMP280;26325;48.594;11.650;2023-04-03T05:56:00;97316.25;;;3.90
40624;BMP280;26325;48.594;11.650;2023-04-03T06:01:47;97323.78;;;3.78
40624;BMP280;26325;48.594;11.650;2023-04-03T06:04:13;97318.06;;;3.76
40624;BMP280;26325;48.594;11.650;2023-04-03T06:06:50;97310.53;;;3.88
40624;BMP280;26325;48.594;11.650;2023-04-03T06:12:38;97322.34;;;3.89
40624;BMP280;26325;48.594;11.650;2023-04-03T06:15:04;97323.06;;;3.83
40624;BMP280;26325;48.594;11.650;2023-04-03T06:20:51;97328.78;;;3.85
40624;BMP280;26325;48.594;11.650;2023-04-03T06:26:38;97329.16;;;4.03
40624;BMP280;26325;48.594;11.650;2023-04-03T06:29:04;97331.22;;;3.93
40624;BMP280;26325;48.594;11.650;2023-04-03T06:34:51;97327.16;;;3.98
40624;BMP280;26325;48.594;11.650;2023-04-03T06:40:40;97337.84;;;4.08
40624;BMP280;26325;48.594;11.650;2023-04-03T06:43:05;97322.56;;;4.15
40624;BMP280;26325;48.594;11.650;2023-04-03T06:45:31;97331.00;;;4.29
40624;BMP280;26325;48.594;11.650;2023-04-03T06:51:23;97331.44;;;4.39
40624;BMP280;26325;48.594;11.650;2023-04-03T06:53:51;97340.22;;;4.51
40624;BMP280;26325;48.594;11.650;2023-04-03T06:56:17;97342.09;;;4.42
40624;BMP280;26325;48.594;11.650;2023-04-03T07:02:04;97346.44;;;4.42
40624;BMP280;26325;48.594;11.650;2023-04-03T07:04:30;97343.75;;;4.50
40624;BMP280;26325;48.594;11.650;2023-04-03T07:10:17;97356.47;;;4.64
40624;BMP280;26325;48.594;11.650;2023-04-03T07:16:05;97353.69;;;4.92
40624;BMP280;26325;48.594;11.650;2023-04-03T07:18:34;97366.16;;;5.01
40624;BMP280;26325;48.594;11.650;2023-04-03T07:21:00;97365.31;;;4.88
40624;BMP280;26325;48.594;11.650;2023-04-03T07:23:25;97360.84;;;4.96
40624;BMP280;26325;48.594;11.650;2023-04-03T07:25:51;97362.78;;;4.94
40624;BMP280;26325;48.594;11.650;2023-04-03T07:31:45;97371.56;;;5.13
40624;BMP280;26325;48.594;11.650;2023-04-03T07:34:10;97367.53;;;5.31
40624;BMP280;26325;48.594;11.650;2023-04-03T07:39:58;97372.97;;;5.15
40624;BMP280;26325;48.594;11.650;2023-04-03T07:45:46;97380.19;;;5.38
40624;BMP280;26325;48.594;11.650;2023-04-03T07:48:15;97382.06;;;5.57
40624;BMP280;26325;48.594;11.650;2023-04-03T07:50:41;97375.72;;;5.53
40624;BMP280;26325;48.594;11.650;2023-04-03T07:56:28;97382.22;;;5.89
40624;BMP280;26325;48.594;11.650;2023-04-03T07:58:53;97373.53;;;5.96
40624;BMP280;26325;48.594;11.650;2023-04-03T08:01:19;97377.13;;;6.01
40624;BMP280;26325;48.594;11.650;2023-04-03T08:07:11;97382.50;;;6.31
40624;BMP280;26325;48.594;11.650;2023-04-03T08:09:36;97382.09;;;6.28
40624;BMP280;26325;48.594;11.650;2023-04-03T08:12:06;97373.69;;;6.53
40624;BMP280;26325;48.594;11.650;2023-04-03T08:14:32;97374.84;;;6.57
40624;BMP280;26325;48.594;11.650;2023-04-03T08:17:04;97382.34;;;6.84
40624;BMP280;26325;48.594;11.650;2023-04-03T08:19:30;97379.78;;;6.84
40624;BMP280;26325;48.594;11.650;2023-04-03T08:24:46;97379.78;;;6.58
40624;BMP280;26325;48.594;11.650;2023-04-03T08:30:33;97392.81;;;6.50
40624;BMP280;26325;48.594;11.650;2023-04-03T08:33:08;97378.59;;;6.67
40624;BMP280;26325;48.594;11.650;2023-04-03T08:35:41;97385.72;;;6.78
40624;BMP280;26325;48.594;11.650;2023-04-03T08:38:07;97380.78;;;6.83
40624;BMP280;26325;48.594;11.650;2023-04-03T08:40:32;97374.84;;;6.76
40624;BMP280;26325;48.594;11.650;2023-04-03T08:46:20;97379.41;;;6.67
40624;BMP280;26325;48.594;11.650;2023-04-03T08:48:47;97375.44;;;6.52
40624;BMP280;26325;48.594;11.650;2023-04-03T08:51:15;97390.44;;;6.49
40624;BMP280;26325;48.594;11.650;2023-04-03T08:57:05;97396.34;;;6.49
40624;BMP280;26325;48.594;11.650;2023-04-03T08:59:35;97412.56;;;6.44
40624;BMP280;26325;48.594;11.650;2023-04-03T09:02:13;97392.22;;;6.67
40624;BMP280;26325;48.594;11.650;2023-04-03T09:04:41;97397.19;;;6.69
40624;BMP280;26325;48.594;11.650;2023-04-03T09:10:30;97406.06;;;6.60
40624;BMP280;26325;48.594;11.650;2023-04-03T09:15:57;97413.31;;;6.31
40624;BMP280;26325;48.594;11.650;2023-04-03T09:18:32;97408.59;;;6.41
40624;BMP280;26325;48.594;11.650;2023-04-03T09:23:53;97412.88;;;6.15
40624;BMP280;26325;48.594;11.650;2023-04-03T09:26:20;97403.88;;;6.51
40624;BMP280;26325;48.594;11.650;2023-04-03T09:28:54;97405.41;;;6.46
40624;BMP280;26325;48.594;11.650;2023-04-03T09:31:26;97408.41;;;6.49
40624;BMP280;26325;48.594;11.650;2023-04-03T09:33:54;97403.66;;;6.71
40624;BMP280;26325;48.594;11.650;2023-04-03T09:36:51;97390.06;;;6.71
40624;BMP280;26325;48.594;11.650;2023-04-03T09:39:22;97393.59;;;6.83
40624;BMP280;26325;48.594;11.650;2023-04-03T09:42:17;97400.75;;;6.87
40624;BMP280;26325;48.594;11.650;2023-04-03T09:44:44;97399.91;;;7.05
40624;BMP280;26325;48.594;11.650;2023-04-03T09:47:49;97399.72;;;7.07
40624;BMP280;26325;48.594;11.650;2023-04-03T09:50:28;97393.34;;;7.41
40624;BMP280;26325;48.594;11.650;2023-04-03T09:52:54;97398.97;;;7.81
40624;BMP280;26325;48.594;11.650;2023-04-03T09:55:22;97399.13;;;7.86
40624;BMP280;26325;48.594;11.650;2023-04-03T09:57:54;97393.44;;;7.78
40624;BMP280;26325;48.594;11.650;2023-04-03T10:00:27;97390.25;;;7.82
40624;BMP280;26325;48.594;11.650;2023-04-03T10:02:57;97392.00;;;7.88
40624;BMP280;26325;48.594;11.650;2023-04-03T10:05:33;97385.88;;;7.89
40624;BMP280;26325;48.594;11.650;2023-04-03T10:10:44;97395.44;;;7.69
40624;BMP280;26325;48.594;11.650;2023-04-03T10:13:12;97399.91;;;7.24
40624;BMP280;26325;48.594;11.650;2023-04-03T10:15:44;97389.41;;;7.32
40624;BMP280;26325;48.594;11.650;2023-04-03T10:18:31;97394.97;;;7.29
40624;BMP280;26325;48.594;11.650;2023-04-03T10:21:02;97390.47;;;6.87
40624;BMP280;26325;48.594;11.650;2023-04-03T10:23:40;97386.31;;;6.92
40624;BMP280;26325;48.594;11.650;2023-04-03T10:37:59;97394.00;;;6.67
40624;BMP280;26325;48.594;11.650;2023-04-03T10:53:55;97393.63;;;7.82
40624;BMP280;26325;48.594;11.650;2023-04-03T10:56:41;97378.50;;;8.41
40624;BMP280;26325;48.594;11.650;2023-04-03T10:59:29;97377.38;;;8.85
40624;BMP280;26325;48.594;11.650;2023-04-03T11:02:16;97368.72;;;9.39
40624;BMP280;26325;48.594;11.650;2023-04-03T11:04:45;97371.75;;;9.53
40624;BMP280;26325;48.594;11.650;2023-04-03T11:07:26;97363.84;;;9.66
40624;BMP280;26325;48.594;11.650;2023-04-03T11:09:54;97376.16;;;10.17
40624;BMP280;26325;48.594;11.650;2023-04-03T11:15:27;97353.97;;;12.06
40624;BMP280;26325;48.594;11.650;2023-04-03T11:21:06;97330.22;;;12.53
40624;BMP280;26325;48.594;11.650;2023-04-03T11:23:45;97327.91;;;12.99
40624;BMP280;26325;48.594;11.650;2023-04-03T11:26:17;97335.94;;;13.14
40624;BMP280;26325;48.594;11.650;2023-04-03T11:28:43;97330.22;;;13.91
40624;BMP280;26325;48.594;11.650;2023-04-03T11:33:45;97321.03;;;14.05
40624;BMP280;26325;48.594;11.650;2023-04-03T11:36:30;97320.31;;;13.67
40624;BMP280;26325;48.594;11.650;2023-04-03T11:39:00;97317.97;;;14.08
40624;BMP280;26325;48.594;11.650;2023-04-03T11:41:33;97318.28;;;13.53
40624;BMP280;26325;48.594;11.650;2023-04-03T11:46:57;97313.63;;;15.00
40624;BMP280;26325;48.594;11.650;2023-04-03T12:16:27;97307.03;;;14.88
40624;BMP280;26325;48.594;11.650;2023-04-03T12:18:55;97308.13;;;14.10
40624;BMP280;26325;48.594;11.650;2023-04-03T12:29:29;97325.91;;;12.15
40624;BMP280;26325;48.594;11.650;2023-04-03T12:37:56;97271.00;;;16.45
40624;BMP280;26325;48.594;11.650;2023-04-03T12:40:37;97281.41;;;16.21
40624;BMP280;26325;48.594;11.650;2023-04-03T12:45:56;97282.53;;;15.65
40624;BMP280;26325;48.594;11.650;2023-04-03T12:48:27;97288.63;;;14.94
40624;BMP280;26325;48.594;11.650;2023-04-03T12:50:52;97290.59;;;13.79
40624;BMP280;26325;48.594;11.650;2023-04-03T12:53:34;97292.41;;;12.84
40624;BMP280;26325;48.594;11.650;2023-04-03T12:56:23;97288.28;;;14.55
40624;BMP280;26325;48.594;11.650;2023-04-03T12:58:54;97288.59;;;15.95
40624;BMP280;26325;48.594;11.650;2023-04-03T13:01:25;97269.84;;;15.88
40624;BMP280;26325;48.594;11.650;2023-04-03T13:04:05;97271.66;;;15.87
40624;BMP280;26325;48.594;11.650;2023-04-03T13:06:38;97286.25;;;15.93
40624;BMP280;26325;48.594;11.650;2023-04-03T13:09:14;97273.38;;;16.66
40624;BMP280;26325;48.594;11.650;2023-04-03T13:11:43;97270.63;;;18.16
40624;BMP280;26325;48.594;11.650;2023-04-03T13:14:21;97268.63;;;17.98
40624;BMP280;26325;48.594;11.650;2023-04-03T13:17:02;97270.94;;;19.17
40624;BMP280;26325;48.594;11.650;2023-04-03T13:19:28;97271.50;;;18.44
40624;BMP280;26325;48.594;11.650;2023-04-03T13:22:47;97275.06;;;15.93
40624;BMP280;26325;48.594;11.650;2023-04-03T13:24:44;97290.53;;;13.95
40624;BMP280;26325;48.594;11.650;2023-04-03T13:27:14;97294.09;;;13.69
40624;BMP280;26325;48.594;11.650;2023-04-03T13:29:40;97301.81;;;14.57
40624;BMP280;26325;48.594;11.650;2023-04-03T13:32:23;97282.03;;;15.78
40624;BMP280;26325;48.594;11.650;2023-04-03T13:34:49;97269.47;;;17.03
40624;BMP280;26325;48.594;11.650;2023-04-03T13:37:32;97271.53;;;16.62
40624;BMP280;26325;48.594;11.650;2023-04-03T13:42:35;97284.56;;;14.21
40624;BMP280;26325;48.594;11.650;2023-04-03T13:47:50;97283.19;;;12.60
40624;BMP280;26325;48.594;11.650;2023-04-03T13:50:22;97280.22;;;13.79
40624;BMP280;26325;48.594;11.650;2023-04-03T13:52:53;97270.06;;;15.22
40624;BMP280;26325;48.594;11.650;2023-04-03T13:55:26;97258.72;;;16.07
40624;BMP280;26325;48.594;11.650;2023-04-03T14:03:25;97288.16;;;12.62
40624;BMP280;26325;48.594;11.650;2023-04-03T14:05:53;97284.84;;;11.80
40624;BMP280;26325;48.594;11.650;2023-04-03T14:08:18;97298.69;;;11.24
40624;BMP280;26325;48.594;11.650;2023-04-03T14:10:44;97292.41;;;11.20
40624;BMP280;26325;48.594;11.650;2023-04-03T14:13:14;97277.19;;;12.71
40624;BMP280;26325;48.594;11.650;2023-04-03T14:15:40;97276.72;;;13.90
40624;BMP280;26325;48.594;11.650;2023-04-03T14:18:13;97270.50;;;15.04
40624;BMP280;26325;48.594;11.650;2023-04-03T14:20:39;97254.28;;;15.43
40624;BMP280;26325;48.594;11.650;2023-04-03T14:23:04;97248.09;;;17.01
40624;BMP280;26325;48.594;11.650;2023-04-03T14:25:30;97253.25;;;17.16
40624;BMP280;26325;48.594;11.650;2023-04-03T14:27:55;97253.78;;;17.13
40624;BMP280;26325;48.594;11.650;2023-04-03T14:30:23;97257.19;;;17.18
40624;BMP280;26325;48.594;11.650;2023-04-03T14:32:49;97255.09;;;16.22
40624;BMP280;26325;48.594;11.650;2023-04-03T14:35:15;97270.13;;;14.60
40624;BMP280;26325;48.594;11.650;2023-04-03T14:37:42;97281.94;;;13.11
40624;BMP280;26325;48.594;11.650;2023-04-03T14:40:11;97269.16;;;12.89
40624;BMP280;26325;48.594;11.650;2023-04-03T14:42:43;97269.63;;;12.54
40624;BMP280;26325;48.594;11.650;2023-04-03T14:45:11;97282.97;;;11.75
40624;BMP280;26325;48.594;11.650;2023-04-03T14:47:47;97280.75;;;10.73
40624;BMP280;26325;48.594;11.650;2023-04-03T14:50:20;97281.41;;;11.74
40624;BMP280;26325;48.594;11.650;2023-04-03T14:52:47;97281.38;;;12.13
40624;BMP280;26325;48.594;11.650;2023-04-03T14:55:14;97281.13;;;11.87
40624;BMP280;26325;48.594;11.650;2023-04-03T14:57:40;97273.50;;;12.08
40624;BMP280;26325;48.594;11.650;2023-04-03T15:00:10;97265.34;;;13.12
40624;BMP280;26325;48.594;11.650;2023-04-03T15:02:37;97271.72;;;13.42
40624;BMP280;26325;48.594;11.650;2023-04-03T15:05:06;97255.81;;;14.01
40624;BMP280;26325;48.594;11.650;2023-04-03T15:07:44;97255.53;;;13.56
40624;BMP280;26325;48.594;11.650;2023-04-03T15:12:42;97280.41;;;12.78
40624;BMP280;26325;48.594;11.650;2023-04-03T15:15:08;97266.88;;;11.73
40624;BMP280;26325;48.594;11.650;2023-04-03T15:17:36;97290.97;;;11.35
40624;BMP280;26325;48.594;11.650;2023-04-03T15:20:03;97293.97;;;10.76
40624;BMP280;26325;48.594;11.650;2023-04-03T15:22:30;97289.31;;;10.33
40624;BMP280;26325;48.594;11.650;2023-04-03T15:24:56;97290.75;;;9.89
40624;BMP280;26325;48.594;11.650;2023-04-03T15:27:23;97281.84;;;9.57
40624;BMP280;26325;48.594;11.650;2023-04-03T15:29:49;97288.59;;;9.40
40624;BMP280;26325;48.594;11.650;2023-04-03T15:32:15;97285.25;;;9.69
40624;BMP280;26325;48.594;11.650;2023-04-03T15:34:40;97290.78;;;9.72
40624;BMP280;26325;48.594;11.650;2023-04-03T15:37:06;97283.31;;;9.64
40624;BMP280;26325;48.594;11.650;2023-04-03T15:39:31;97289.34;;;9.58
40624;BMP280;26325;48.594;11.650;2023-04-03T15:41:58;97296.13;;;9.24
40624;BMP280;26325;48.594;11.650;2023-04-03T15:44:38;97294.31;;;9.25
40624;BMP280;26325;48.594;11.650;2023-04-03T15:47:03;97290.44;;;8.98
40624;BMP280;26325;48.594;11.650;2023-04-03T15:49:29;97292.06;;;8.75
40624;BMP280;26325;48.594;11.650;2023-04-03T15:51:55;97298.50;;;8.43
40624;BMP280;26325;48.594;11.650;2023-04-03T15:54:22;97294.53;;;8.40
40624;BMP280;26325;48.594;11.650;2023-04-03T15:56:49;97295.06;;;8.25
40624;BMP280;26325;48.594;11.650;2023-04-03T15:59:17;97282.84;;;8.14
40624;BMP280;26325;48.594;11.650;2023-04-03T16:01:43;97288.84;;;8.08
40624;BMP280;26325;48.594;11.650;2023-04-03T16:04:09;97293.63;;;7.92
40624;BMP280;26325;48.594;11.650;2023-04-03T16:06:36;97288.13;;;7.89
40624;BMP280;26325;48.594;11.650;2023-04-03T16:09:04;97304.38;;;7.83
40624;BMP280;26325;48.594;11.650;2023-04-03T16:11:29;97299.09;;;7.72
40624;BMP280;26325;48.594;11.650;2023-04-03T16:13:55;97308.41;;;7.66
40624;BMP280;26325;48.594;11.650;2023-04-03T16:16:21;97305.16;;;7.47
40624;BMP280;26325;48.594;11.650;2023-04-03T16:18:48;97314.72;;;7.27
40624;BMP280;26325;48.594;11.650;2023-04-03T16:21:14;97308.66;;;7.03
40624;BMP280;26325;48.594;11.650;2023-04-03T16:23:40;97311.66;;;6.87
40624;BMP280;26325;48.594;11.650;2023-04-03T16:26:06;97312.44;;;6.94
40624;BMP280;26325;48.594;11.650;2023-04-03T16:28:32;97318.94;;;7.03
40624;BMP280;26325;48.594;11.650;2023-04-03T16:30:57;97316.97;;;6.92
40624;BMP280;26325;48.594;11.650;2023-04-03T16:33:23;97310.63;;;6.88
40624;BMP280;26325;48.594;11.650;2023-04-03T16:35:50;97320.34;;;6.74
40624;BMP280;26325;48.594;11.650;2023-04-03T16:38:15;97319.75;;;6.59
40624;BMP280;26325;48.594;11.650;2023-04-03T16:40:44;97318.19;;;6.58
40624;BMP280;26325;48.594;11.650;2023-04-03T16:43:10;97321.13;;;6.55
40624;BMP280;26325;48.594;11.650;2023-04-03T16:45:35;97329.63;;;6.56
40624;BMP280;26325;48.594;11.650;2023-04-03T16:48:01;97327.25;;;6.54
40624;BMP280;26325;48.594;11.650;2023-04-03T16:50:27;97321.94;;;6.49
40624;BMP280;26325;48.594;11.650;2023-04-03T16:52:52;97330.81;;;6.34
40624;BMP280;26325;48.594;11.650;2023-04-03T16:55:17;97334.56;;;6.19
40624;BMP280;26325;48.594;11.650;2023-04-03T16:57:46;97340.63;;;6.06
40624;BMP280;26325;48.594;11.650;2023-04-03T17:00:11;97343.38;;;6.04
40624;BMP280;26325;48.594;11.650;2023-04-03T17:02:38;97344.97;;;6.05
40624;BMP280;26325;48.594;11.650;2023-04-03T17:05:04;97349.28;;;5.92
40624;BMP280;26325;48.594;11.650;2023-04-03T17:07:30;97343.75;;;5.95
40624;BMP280;26325;48.594;11.650;2023-04-03T17:09:55;97348.88;;;5.82
40624;BMP280;26325;48.594;11.650;2023-04-03T17:12:21;97345.69;;;5.74
40624;BMP280;26325;48.594;11.650;2023-04-03T17:14:47;97351.63;;;5.81
40624;BMP280;26325;48.594;11.650;2023-04-03T17:17:17;97353.81;;;5.50
40624;BMP280;26325;48.594;11.650;2023-04-03T17:19:43;97352.97;;;5.37
40624;BMP280;26325;48.594;11.650;2023-04-03T17:22:09;97357.34;;;5.43
40624;BMP280;26325;48.594;11.650;2023-04-03T17:24:35;97359.94;;;5.50